createdAt,value
2019-04-21T00:00:11.056Z,4.87
2019-04-21T00:01:14.585Z,4.80
2019-04-21T00:02:26.411Z,4.42
2019-04-21T00:03:34.507Z,4.60
2019-04-21T00:04:43.327Z,4.80
2019-04-21T00:05:57.551Z,4.87
2019-04-21T00:07:04.423Z,4.85
2019-04-21T00:08:16.906Z,4.85
2019-04-21T00:09:18.135Z,4.22
2019-04-21T00:10:23.511Z,5.12
2019-04-21T00:11:32.992Z,5.17
2019-04-21T00:12:32.384Z,4.78
2019-04-21T00:13:33.135Z,4.83
2019-04-21T00:14:34.994Z,4.72
2019-04-21T00:15:39.937Z,5.22
2019-04-21T00:16:44.140Z,5.05
2019-04-21T00:17:50.827Z,5.60
2019-04-21T00:19:02.581Z,5.15
2019-04-21T00:20:15.045Z,4.78
2019-04-21T00:21:17.602Z,5.17
2019-04-21T00:22:23.721Z,5.45
2019-04-21T00:23:39.650Z,5.05
2019-04-21T00:24:43.489Z,5.10
2019-04-21T00:25:46.066Z,5.05
2019-04-21T00:26:57.422Z,4.92
2019-04-21T00:28:12.228Z,5.10
2019-04-21T00:29:18.707Z,5.15
2019-04-21T00:30:24.054Z,4.90
2019-04-21T00:31:24.618Z,5.40
2019-04-21T00:32:25.681Z,5.00
2019-04-21T00:33:24.349Z,4.97
2019-04-21T00:34:23.741Z,5.45
2019-04-21T00:35:30.823Z,4.30
2019-04-21T00:36:47.298Z,4.87
2019-04-21T00:38:00.370Z,4.47
2019-04-21T00:39:14.557Z,4.62
2019-04-21T00:40:29.770Z,4.50
2019-04-21T00:41:18.808Z,4.87
2019-04-21T00:42:25.649Z,4.50
2019-04-21T00:43:29.389Z,4.58
2019-04-21T00:44:27.453Z,3.95
2019-04-21T00:45:36.448Z,5.55
2019-04-21T00:46:43.630Z,4.90
2019-04-21T00:47:54.558Z,4.40
2019-04-21T00:48:56.483Z,4.53
2019-04-21T00:50:08.109Z,4.65
2019-04-21T00:51:25.151Z,4.40
2019-04-21T00:53:58.344Z,4.40
2019-04-21T00:55:10.375Z,4.80
2019-04-21T00:56:11.930Z,4.67
2019-04-21T00:57:14.537Z,4.50
2019-04-21T00:58:20.781Z,4.55
2019-04-21T00:59:29.533Z,4.60
2019-04-21T01:00:27.340Z,5.15
2019-04-21T01:01:31.222Z,4.20
2019-04-21T01:02:46.883Z,4.53
2019-04-21T01:03:53.750Z,4.20
2019-04-21T01:05:00.221Z,4.65
2019-04-21T01:06:00.780Z,4.92
2019-04-21T01:07:07.192Z,4.80
2019-04-21T01:08:11.493Z,4.40
2019-04-21T01:09:13.577Z,4.62
2019-04-21T01:10:14.455Z,4.37
2019-04-21T01:11:32.051Z,4.83
2019-04-21T01:12:37.943Z,4.62
2019-04-21T01:13:41.262Z,5.05
2019-04-21T01:14:50.092Z,5.37
2019-04-21T01:15:53.351Z,4.53
2019-04-21T01:17:00.381Z,3.85
2019-04-21T01:18:04.852Z,4.45
2019-04-21T01:19:12.115Z,3.70
2019-04-21T01:20:10.541Z,4.75
2019-04-21T01:21:13.382Z,3.95
2019-04-21T01:22:08.751Z,4.30
2019-04-21T01:23:12.919Z,4.12
2019-04-21T01:24:26.578Z,4.42
2019-04-21T01:25:33.065Z,3.90
2019-04-21T01:26:42.784Z,4.20
2019-04-21T01:28:07.258Z,3.70
2019-04-21T01:29:02.849Z,4.30
2019-04-21T01:30:14.342Z,4.10
2019-04-21T01:31:09.799Z,4.70
2019-04-21T01:32:25.756Z,4.75
2019-04-21T01:33:26.109Z,4.00
2019-04-21T01:34:36.692Z,4.22
2019-04-21T01:35:39.692Z,4.40
2019-04-21T01:36:38.650Z,4.65
2019-04-21T01:38:00.134Z,4.05
2019-04-21T01:39:02.247Z,4.17
2019-04-21T01:40:14.744Z,4.17
2019-04-21T01:41:13.199Z,3.92
2019-04-21T01:42:15.907Z,4.30
2019-04-21T01:43:20.078Z,3.90
2019-04-21T01:44:29.814Z,4.05
2019-04-21T01:45:31.708Z,4.28
2019-04-21T01:46:33.541Z,4.03
2019-04-21T01:47:44.897Z,4.20
2019-04-21T01:48:47.977Z,4.15
2019-04-21T01:49:47.616Z,3.77
2019-04-21T01:50:55.498Z,4.17
2019-04-21T01:52:17.611Z,3.98
2019-04-21T01:53:24.894Z,3.98
2019-04-21T01:54:52.005Z,4.85
2019-04-21T01:56:08.068Z,4.47
2019-04-21T01:57:23.034Z,4.50
2019-04-21T01:58:26.985Z,3.90
2019-04-21T01:59:35.304Z,4.37
2019-04-21T02:01:02.132Z,4.37
2019-04-21T02:02:10.665Z,4.67
2019-04-21T02:03:36.233Z,3.90
2019-04-21T02:04:29.305Z,3.75
2019-04-21T02:05:39.438Z,5.28
2019-04-21T02:06:34.844Z,4.08
2019-04-21T02:07:40.620Z,4.95
2019-04-21T02:08:44.773Z,4.72
2019-04-21T02:09:58.850Z,4.22
2019-04-21T02:11:05.182Z,4.30
2019-04-21T02:12:10.575Z,5.75
2019-04-21T02:13:12.116Z,4.12
2019-04-21T02:14:23.699Z,4.35
2019-04-21T02:15:33.030Z,3.95
2019-04-21T02:16:28.279Z,4.80
2019-04-21T02:17:35.680Z,4.25
2019-04-21T02:18:39.093Z,3.85
2019-04-21T02:19:45.132Z,4.50
2019-04-21T02:20:44.527Z,4.62
2019-04-21T02:21:52.931Z,4.05
2019-04-21T02:23:17.754Z,4.00
2019-04-21T02:24:37.681Z,4.10
2019-04-21T02:25:22.712Z,3.85
2019-04-21T02:26:32.010Z,4.03
2019-04-21T02:27:31.770Z,4.45
2019-04-21T02:28:44.710Z,4.80
2019-04-21T02:29:48.765Z,4.53
2019-04-21T02:31:07.988Z,4.65
2019-04-21T02:32:11.375Z,4.03
2019-04-21T02:33:08.685Z,4.42
2019-04-21T02:35:30.564Z,4.50
2019-04-21T02:36:40.266Z,4.42
2019-04-21T02:37:55.665Z,4.20
2019-04-21T02:39:48.914Z,4.80
2019-04-21T02:41:55.849Z,4.45
2019-04-21T02:43:07.427Z,4.08
2019-04-21T02:44:10.147Z,4.25
2019-04-21T02:45:19.105Z,4.22
2019-04-21T02:46:31.329Z,5.00
2019-04-21T02:47:38.756Z,3.92
2019-04-21T02:48:38.931Z,5.30
2019-04-21T02:50:00.384Z,4.22
2019-04-21T02:50:47.049Z,4.60
2019-04-21T02:51:54.936Z,4.50
2019-04-21T02:54:35.994Z,4.55
2019-04-21T02:55:11.749Z,4.45
2019-04-21T02:56:18.480Z,5.25
2019-04-21T02:58:58.310Z,4.20
2019-04-21T03:00:06.487Z,4.53
2019-04-21T03:01:23.859Z,5.15
2019-04-21T03:04:36.129Z,4.67
2019-04-21T03:07:14.820Z,4.75
2019-04-21T03:08:14.744Z,4.58
2019-04-21T03:09:25.136Z,4.47
2019-04-21T03:10:39.121Z,4.75
2019-04-21T03:11:28.954Z,4.55
2019-04-21T03:12:38.100Z,4.28
2019-04-21T03:13:46.979Z,4.67
2019-04-21T03:17:05.612Z,4.62
2019-04-21T03:19:33.007Z,4.85
2019-04-21T03:20:23.427Z,4.72
2019-04-21T03:21:29.131Z,5.10
2019-04-21T03:22:31.528Z,5.42
2019-04-21T03:23:46.834Z,4.60
2019-04-21T03:25:20.371Z,5.10
2019-04-21T03:25:50.228Z,4.90
2019-04-21T03:27:10.389Z,4.62
2019-04-21T03:28:08.286Z,4.28
2019-04-21T03:29:11.954Z,5.05
2019-04-21T03:30:29.284Z,4.25
2019-04-21T03:36:25.834Z,4.80
2019-04-21T03:37:14.019Z,4.25
2019-04-21T03:39:17.998Z,4.30
2019-04-21T03:40:14.930Z,4.30
2019-04-21T03:42:36.778Z,4.05
2019-04-21T03:43:28.373Z,4.37
2019-04-21T03:46:47.525Z,4.87
2019-04-21T03:47:57.090Z,4.97
2019-04-21T03:49:04.883Z,4.40
2019-04-21T03:50:12.286Z,4.47
2019-04-21T03:51:21.380Z,5.17
2019-04-21T03:52:27.833Z,4.33
2019-04-21T03:53:24.766Z,4.87
2019-04-21T03:54:37.183Z,4.25
2019-04-21T03:55:52.975Z,4.65
2019-04-21T03:56:59.103Z,4.60
2019-04-21T03:58:10.713Z,3.83
2019-04-21T03:58:58.526Z,4.72
2019-04-21T04:00:28.913Z,4.80
2019-04-21T04:01:37.053Z,4.62
2019-04-21T04:03:33.066Z,4.90
2019-04-21T04:04:52.686Z,4.30
2019-04-21T04:06:11.473Z,4.85
2019-04-21T04:07:33.584Z,4.90
2019-04-21T04:10:04.008Z,4.75
2019-04-21T04:11:12.332Z,4.55
2019-04-21T04:12:09.055Z,4.35
2019-04-21T04:13:15.663Z,5.17
2019-04-21T04:14:25.051Z,4.33
2019-04-21T04:15:38.692Z,4.70
2019-04-21T04:16:37.196Z,4.90
2019-04-21T04:21:10.195Z,4.87
2019-04-21T04:22:22.853Z,4.15
2019-04-21T04:24:22.603Z,4.45
2019-04-21T04:25:38.860Z,5.00
2019-04-21T04:26:32.360Z,4.35
2019-04-21T04:29:53.061Z,4.55
2019-04-21T04:30:52.018Z,5.37
2019-04-21T04:32:00.761Z,4.92
2019-04-21T04:33:07.998Z,4.78
2019-04-21T04:34:18.584Z,4.87
2019-04-21T04:35:21.645Z,4.62
2019-04-21T04:38:50.229Z,4.78
2019-04-21T04:41:33.155Z,5.00
2019-04-21T04:43:09.030Z,5.28
2019-04-21T04:44:14.475Z,4.53
2019-04-21T04:45:15.067Z,4.62
2019-04-21T04:46:26.964Z,5.15
2019-04-21T04:50:49.309Z,5.45
2019-04-21T04:51:58.622Z,5.33
2019-04-21T04:52:46.298Z,5.20
2019-04-21T04:53:53.173Z,4.72
2019-04-21T04:55:03.492Z,5.67
2019-04-21T04:56:10.449Z,5.28
2019-04-21T04:57:45.527Z,5.55
2019-04-21T05:00:00.503Z,5.20
2019-04-21T05:00:34.947Z,5.37
2019-04-21T05:01:44.441Z,4.95
2019-04-21T05:02:46.416Z,5.37
2019-04-21T05:03:56.957Z,6.40
2019-04-21T05:05:09.157Z,5.42
2019-04-21T05:07:33.462Z,4.58
2019-04-21T05:08:56.033Z,4.62
2019-04-21T05:09:39.084Z,4.85
2019-04-21T05:10:57.435Z,5.42
2019-04-21T05:12:58.695Z,5.33
2019-04-21T05:14:13.385Z,5.20
2019-04-21T05:15:09.720Z,4.58
2019-04-21T05:16:26.377Z,5.22
2019-04-21T05:18:24.343Z,4.42
2019-04-21T05:19:32.734Z,4.65
2019-04-21T05:20:29.903Z,5.03
2019-04-21T05:21:42.304Z,5.40
2019-04-21T05:22:50.361Z,4.75
2019-04-21T05:23:49.850Z,4.30
2019-04-21T05:24:53.935Z,4.85
2019-04-21T05:25:54.297Z,4.75
2019-04-21T05:27:03.451Z,5.15
2019-04-21T05:28:06.422Z,4.95
2019-04-21T05:29:13.004Z,4.92
2019-04-21T05:30:40.393Z,5.45
2019-04-21T05:32:08.092Z,4.42
2019-04-21T05:33:19.406Z,5.37
2019-04-21T05:34:42.618Z,5.03
2019-04-21T05:35:56.012Z,4.90
2019-04-21T05:37:25.845Z,5.42
2019-04-21T05:38:39.141Z,5.08
2019-04-21T05:39:49.285Z,4.53
2019-04-21T05:40:51.251Z,5.00
2019-04-21T05:41:52.901Z,4.53
2019-04-21T05:43:10.542Z,5.40
2019-04-21T05:44:19.348Z,5.33
2019-04-21T05:45:23.140Z,4.72
2019-04-21T05:46:25.527Z,5.03
2019-04-21T05:47:56.012Z,5.37
2019-04-21T05:48:57.138Z,4.85
2019-04-21T05:50:06.528Z,4.85
2019-04-21T05:51:09.065Z,5.33
2019-04-21T05:52:19.161Z,5.28
2019-04-21T05:53:29.521Z,5.17
2019-04-21T05:54:44.082Z,5.28
2019-04-21T05:55:46.330Z,4.55
2019-04-21T05:56:51.251Z,5.55
2019-04-21T05:57:46.599Z,5.28
2019-04-21T05:58:58.052Z,5.20
2019-04-21T06:00:06.286Z,5.30
2019-04-21T06:02:27.740Z,5.53
2019-04-21T06:03:32.523Z,5.47
2019-04-21T06:04:54.766Z,5.20
2019-04-21T06:05:44.685Z,4.97
2019-04-21T06:06:47.762Z,4.97
2019-04-21T06:07:52.688Z,5.70
2019-04-21T06:08:59.557Z,5.05
2019-04-21T06:10:27.419Z,5.67
2019-04-21T06:11:19.051Z,5.50
2019-04-21T06:12:21.313Z,5.35
2019-04-21T06:14:37.235Z,5.40
2019-04-21T06:15:48.399Z,5.75
2019-04-21T06:16:49.834Z,5.58
2019-04-21T06:17:52.534Z,5.60
2019-04-21T06:20:02.870Z,4.92
2019-04-21T06:22:07.666Z,5.83
2019-04-21T06:23:20.990Z,5.65
2019-04-21T06:24:25.172Z,4.67
2019-04-21T06:25:50.059Z,5.75
2019-04-21T06:27:49.477Z,5.50
2019-04-21T06:29:04.227Z,5.12
2019-04-21T06:29:55.833Z,5.58
2019-04-21T06:31:14.489Z,4.92
2019-04-21T06:33:18.055Z,5.55
2019-04-21T06:34:49.581Z,5.53
2019-04-21T06:35:52.999Z,5.50
2019-04-21T06:37:07.924Z,4.80
2019-04-21T06:38:11.674Z,4.92
2019-04-21T06:39:12.046Z,5.42
2019-04-21T06:40:21.337Z,4.65
2019-04-21T06:41:26.459Z,6.30
2019-04-21T06:42:25.703Z,4.87
2019-04-21T06:43:41.745Z,5.10
2019-04-21T06:44:48.331Z,4.97
2019-04-21T06:45:55.685Z,4.90
2019-04-21T06:46:53.325Z,4.90
2019-04-21T06:48:06.881Z,5.60
2019-04-21T06:49:02.848Z,5.20
2019-04-21T06:50:12.096Z,5.47
2019-04-21T06:51:22.447Z,5.65
2019-04-21T06:52:52.177Z,5.42
2019-04-21T06:53:39.679Z,4.85
2019-04-21T06:55:38.601Z,5.15
2019-04-21T06:56:47.984Z,4.92
2019-04-21T06:57:56.107Z,4.80
2019-04-21T06:58:55.503Z,5.47
2019-04-21T07:00:03.920Z,5.78
2019-04-21T07:01:15.758Z,5.35
2019-04-21T07:03:42.191Z,6.05
2019-04-21T07:04:31.728Z,4.95
2019-04-21T07:05:43.977Z,5.97
2019-04-21T07:06:48.102Z,6.22
2019-04-21T07:08:12.832Z,4.80
2019-04-21T07:09:02.754Z,4.92
2019-04-21T07:10:02.962Z,5.90
2019-04-21T07:11:03.316Z,4.67
2019-04-21T07:12:07.477Z,5.20
2019-04-21T07:13:15.598Z,5.53
2019-04-21T07:14:29.331Z,5.42
2019-04-21T07:15:35.723Z,4.80
2019-04-21T07:16:38.649Z,5.12
2019-04-21T07:17:38.854Z,4.90
2019-04-21T07:18:51.714Z,5.55
2019-04-21T07:19:58.831Z,5.03
2019-04-21T07:21:01.225Z,5.22
2019-04-21T07:22:06.075Z,5.55
2019-04-21T07:23:16.270Z,5.60
2019-04-21T07:24:22.475Z,5.03
2019-04-21T07:25:22.081Z,5.33
2019-04-21T07:26:32.713Z,5.08
2019-04-21T07:27:35.253Z,5.30
2019-04-21T07:28:40.443Z,5.03
2019-04-21T07:29:47.728Z,5.33
2019-04-21T07:30:59.035Z,5.35
2019-04-21T07:33:20.699Z,5.37
2019-04-21T07:34:13.938Z,5.53
2019-04-21T07:35:15.053Z,5.60
2019-04-21T07:36:30.501Z,5.30
2019-04-21T07:37:31.697Z,5.37
2019-04-21T07:38:34.658Z,5.70
2019-04-21T07:39:42.455Z,5.78
2019-04-21T07:40:38.897Z,5.10
2019-04-21T07:41:43.812Z,5.40
2019-04-21T07:42:51.179Z,5.58
2019-04-21T07:43:57.183Z,4.90
2019-04-21T07:45:05.217Z,5.33
2019-04-21T07:46:10.128Z,5.80
2019-04-21T07:47:23.423Z,5.87
2019-04-21T07:48:32.505Z,5.15
2019-04-21T07:50:08.711Z,5.70
2019-04-21T07:51:31.777Z,5.60
2019-04-21T07:53:08.586Z,5.17
2019-04-21T07:54:13.401Z,4.47
2019-04-21T07:56:07.334Z,5.25
2019-04-21T07:57:27.622Z,5.47
2019-04-21T07:58:39.807Z,6.20
2019-04-21T07:59:48.456Z,5.80
2019-04-21T08:01:51.950Z,5.65
2019-04-21T08:02:54.049Z,5.10
2019-04-21T08:04:03.990Z,6.00
2019-04-21T08:05:16.260Z,5.33
2019-04-21T08:06:12.761Z,6.12
2019-04-21T08:07:47.711Z,4.90
2019-04-21T08:08:44.311Z,5.87
2019-04-21T08:09:55.111Z,6.00
2019-04-21T08:10:56.768Z,6.20
2019-04-21T08:12:00.382Z,5.17
2019-04-21T08:13:09.944Z,5.47
2019-04-21T08:14:17.745Z,5.05
2019-04-21T08:16:30.599Z,4.95
2019-04-21T08:17:30.296Z,4.95
2019-04-21T08:18:39.989Z,5.78
2019-04-21T08:19:43.309Z,5.33
2019-04-21T08:20:47.838Z,5.37
2019-04-21T08:22:09.651Z,5.33
2019-04-21T08:23:11.090Z,5.55
2019-04-21T08:24:06.378Z,4.72
2019-04-21T08:25:15.177Z,4.80
2019-04-21T08:26:33.788Z,5.22
2019-04-21T08:27:26.646Z,4.45
2019-04-21T08:28:35.581Z,5.58
2019-04-21T08:29:39.486Z,5.35
2019-04-21T08:30:43.217Z,5.22
2019-04-21T08:31:56.266Z,5.45
2019-04-21T08:33:09.058Z,5.03
2019-04-21T08:34:07.902Z,5.62
2019-04-21T08:35:49.289Z,5.22
2019-04-21T08:36:25.454Z,5.10
2019-04-21T08:37:22.716Z,4.90
2019-04-21T08:38:31.482Z,5.15
2019-04-21T08:39:42.296Z,4.50
2019-04-21T08:40:55.977Z,6.47
2019-04-21T08:41:46.900Z,4.95
2019-04-21T08:42:52.153Z,5.60
2019-04-21T08:43:58.991Z,5.90
2019-04-21T08:45:07.853Z,4.80
2019-04-21T08:46:13.893Z,5.62
2019-04-21T08:47:19.312Z,5.37
2019-04-21T08:48:22.800Z,4.10
2019-04-21T08:49:32.334Z,4.70
2019-04-21T08:50:32.466Z,5.20
2019-04-21T08:52:04.092Z,4.87
2019-04-21T08:52:52.239Z,5.30
2019-04-21T08:53:56.821Z,6.25
2019-04-21T08:55:15.180Z,4.83
2019-04-21T08:56:33.924Z,5.12
2019-04-21T08:58:08.095Z,5.30
2019-04-21T09:00:46.816Z,4.97
2019-04-21T09:01:55.600Z,4.30
2019-04-21T09:03:11.713Z,5.62
2019-04-21T09:04:12.794Z,4.67
2019-04-21T09:05:20.662Z,5.05
2019-04-21T09:06:40.571Z,5.10
2019-04-21T09:07:36.313Z,5.30
2019-04-21T09:08:44.496Z,4.83
2019-04-21T09:09:43.465Z,4.65
2019-04-21T09:10:47.054Z,4.53
2019-04-21T09:11:54.303Z,4.33
2019-04-21T09:13:03.172Z,4.90
2019-04-21T09:14:07.541Z,4.55
2019-04-21T09:15:17.065Z,4.60
2019-04-21T09:16:18.784Z,3.95
2019-04-21T09:17:22.109Z,4.70
2019-04-21T09:18:22.817Z,4.40
2019-04-21T09:19:44.139Z,4.30
2019-04-21T09:20:50.850Z,4.75
2019-04-21T09:21:49.981Z,4.05
2019-04-21T09:22:54.399Z,3.70
2019-04-21T09:23:56.466Z,4.90
2019-04-21T09:25:01.635Z,4.28
2019-04-21T09:26:14.641Z,4.58
2019-04-21T09:27:15.424Z,4.30
2019-04-21T09:28:22.669Z,4.15
2019-04-21T09:29:23.428Z,3.90
2019-04-21T09:30:17.917Z,4.17
2019-04-21T09:31:26.008Z,3.75
2019-04-21T09:32:32.553Z,3.80
2019-04-21T09:33:40.713Z,4.72
2019-04-21T09:34:43.572Z,3.92
2019-04-21T09:35:53.203Z,4.08
2019-04-21T09:37:08.898Z,4.60
2019-04-21T09:38:10.786Z,5.10
2019-04-21T09:39:15.018Z,3.77
2019-04-21T09:40:20.504Z,4.00
2019-04-21T09:41:24.570Z,3.33
2019-04-21T09:42:37.292Z,4.30
2019-04-21T09:43:41.885Z,4.08
2019-04-21T09:44:43.760Z,3.95
2019-04-21T09:45:47.503Z,4.05
2019-04-21T09:46:55.924Z,3.50
2019-04-21T09:48:04.498Z,4.05
2019-04-21T09:49:06.504Z,4.28
2019-04-21T09:50:11.549Z,3.25
2019-04-21T09:51:15.951Z,3.65
2019-04-21T09:52:25.414Z,3.02
2019-04-21T09:53:32.973Z,3.50
2019-04-21T09:54:35.418Z,3.50
2019-04-21T09:55:46.373Z,3.75
2019-04-21T09:56:52.408Z,4.28
2019-04-21T09:57:55.050Z,3.85
2019-04-21T09:59:07.243Z,4.87
2019-04-21T10:00:11.987Z,4.90
2019-04-21T10:01:18.107Z,3.75
2019-04-21T10:02:21.291Z,4.17
2019-04-21T10:03:21.217Z,4.35
2019-04-21T10:04:26.628Z,4.72
2019-04-21T10:05:31.705Z,4.15
2019-04-21T10:06:37.247Z,4.30
2019-04-21T10:07:43.787Z,3.90
2019-04-21T10:08:51.835Z,4.30
2019-04-21T10:09:54.587Z,4.22
2019-04-21T10:10:59.260Z,4.08
2019-04-21T10:12:03.788Z,4.55
2019-04-21T10:13:07.984Z,4.58
2019-04-21T10:14:12.165Z,5.00
2019-04-21T10:15:16.638Z,5.00
2019-04-21T10:16:49.556Z,4.50
2019-04-21T10:17:58.015Z,5.10
2019-04-21T10:19:02.641Z,4.60
2019-04-21T10:20:09.343Z,4.75
2019-04-21T10:21:13.630Z,4.40
2019-04-21T10:22:19.028Z,4.47
2019-04-21T10:23:23.866Z,3.52
2019-04-21T10:24:28.524Z,4.10
2019-04-21T10:25:32.891Z,3.42
2019-04-21T10:26:37.543Z,3.85
2019-04-21T10:27:43.191Z,4.17
2019-04-21T10:28:49.018Z,3.90
2019-04-21T10:29:53.954Z,4.72
2019-04-21T10:30:58.591Z,3.67
2019-04-21T10:32:03.610Z,4.83
2019-04-21T10:33:08.402Z,4.50
2019-04-21T10:34:13.498Z,4.00
2019-04-21T10:35:20.927Z,4.10
2019-04-21T10:36:24.877Z,4.20
2019-04-21T10:37:42.360Z,3.90
2019-04-21T10:38:42.312Z,5.12
2019-04-21T10:39:41.913Z,4.10
2019-04-21T10:40:47.450Z,4.85
2019-04-21T10:41:53.165Z,4.70
2019-04-21T10:42:58.398Z,4.17
2019-04-21T10:44:03.113Z,3.83
2019-04-21T10:45:08.087Z,3.50
2019-04-21T10:46:12.894Z,4.12
2019-04-21T10:47:18.582Z,4.08
2019-04-21T10:48:23.152Z,3.05
2019-04-21T10:49:28.626Z,4.90
2019-04-21T10:50:33.315Z,4.55
2019-04-21T10:51:37.559Z,4.45
2019-04-21T10:53:00.903Z,4.67
2019-04-21T10:54:06.273Z,5.25
2019-04-21T10:55:26.302Z,4.20
2019-04-21T10:56:23.935Z,4.03
2019-04-21T10:57:26.445Z,4.80
2019-04-21T10:58:36.329Z,4.60
2019-04-21T10:59:46.208Z,5.15
2019-04-21T11:00:48.388Z,5.35
2019-04-21T11:01:52.889Z,4.37
2019-04-21T11:03:17.144Z,4.90
2019-04-21T11:04:35.170Z,4.85
2019-04-21T11:05:36.763Z,4.85
2019-04-21T11:06:42.121Z,5.67
2019-04-21T11:08:04.861Z,4.22
2019-04-21T11:08:57.903Z,4.30
2019-04-21T11:10:04.378Z,3.90
2019-04-21T11:11:10.009Z,4.05
2019-04-21T11:12:15.565Z,4.53
2019-04-21T11:13:20.780Z,4.70
2019-04-21T11:14:45.152Z,5.67
2019-04-21T11:15:50.787Z,4.75
2019-04-21T11:16:56.507Z,3.90
2019-04-21T11:18:01.778Z,3.65
2019-04-21T11:19:06.401Z,4.05
2019-04-21T11:20:10.851Z,5.35
2019-04-21T11:21:16.566Z,4.30
2019-04-21T11:22:20.959Z,4.28
2019-04-21T11:23:25.251Z,4.25
2019-04-21T11:24:29.442Z,5.58
2019-04-21T11:25:33.889Z,4.92
2019-04-21T11:26:38.286Z,4.85
2019-04-21T11:27:42.917Z,4.70
2019-04-21T11:28:47.426Z,4.65
2019-04-21T11:29:51.813Z,4.75
2019-04-21T11:30:57.157Z,4.83
2019-04-21T11:32:02.928Z,4.58
2019-04-21T11:33:08.976Z,4.72
2019-04-21T11:34:13.556Z,4.37
2019-04-21T11:35:19.183Z,4.53
2019-04-21T11:36:24.868Z,7.85
2019-04-21T11:37:32.270Z,5.42
2019-04-21T11:39:03.317Z,10.20
2019-04-21T11:39:59.308Z,5.72
2019-04-21T11:40:58.023Z,5.12
2019-04-21T11:42:07.760Z,4.67
2019-04-21T11:43:13.583Z,4.15
2019-04-21T11:44:18.623Z,4.62
2019-04-21T11:45:30.534Z,5.05
2019-04-21T11:46:36.189Z,5.45
2019-04-21T11:47:46.011Z,4.75
2019-04-21T11:48:50.569Z,6.28
2019-04-21T11:49:54.962Z,5.12
2019-04-21T11:50:59.406Z,5.45
2019-04-21T11:52:04.881Z,4.92
2019-04-21T11:53:10.526Z,5.20
2019-04-21T11:54:15.154Z,5.70
2019-04-21T11:55:20.589Z,4.53
2019-04-21T11:56:25.156Z,4.42
2019-04-21T11:57:34.958Z,3.70
2019-04-21T11:58:36.241Z,4.65
2019-04-21T11:59:41.626Z,4.70
2019-04-21T12:00:47.856Z,4.75
2019-04-21T12:01:52.215Z,4.55
2019-04-21T12:02:57.603Z,4.12
2019-04-21T12:04:03.299Z,3.60
2019-04-21T12:05:08.145Z,4.45
2019-04-21T12:06:13.420Z,4.80
2019-04-21T12:07:17.767Z,4.67
2019-04-21T12:08:29.945Z,4.17
2019-04-21T12:09:29.278Z,4.78
2019-04-21T12:10:33.731Z,5.47
2019-04-21T12:11:39.010Z,4.85
2019-04-21T12:12:43.381Z,3.62
2019-04-21T12:13:48.035Z,3.15
2019-04-21T12:14:52.471Z,3.85
2019-04-21T12:15:57.138Z,3.50
2019-04-21T12:17:02.674Z,3.62
2019-04-21T12:18:08.000Z,3.80
2019-04-21T12:19:12.655Z,4.05
2019-04-21T12:20:16.902Z,4.97
2019-04-21T12:21:21.263Z,3.30
2019-04-21T12:22:29.980Z,3.22
2019-04-21T12:23:32.354Z,3.75
2019-04-21T12:24:38.066Z,3.55
2019-04-21T12:25:45.350Z,5.22
2019-04-21T12:26:49.940Z,3.60
2019-04-21T12:27:54.307Z,3.87
2019-04-21T12:28:59.645Z,5.00
2019-04-21T12:30:05.899Z,3.55
2019-04-21T12:31:35.873Z,4.47
2019-04-21T12:32:51.927Z,4.08
2019-04-21T12:33:58.135Z,4.30
2019-04-21T12:35:03.885Z,4.22
2019-04-21T12:36:09.466Z,3.75
2019-04-21T12:37:15.076Z,3.60
2019-04-21T12:38:30.194Z,4.10
2019-04-21T12:39:26.992Z,3.27
2019-04-21T12:40:32.592Z,3.55
2019-04-21T12:41:38.375Z,3.58
2019-04-21T12:42:43.671Z,3.95
2019-04-21T12:43:48.741Z,3.00
2019-04-21T12:44:52.989Z,3.45
2019-04-21T12:45:58.059Z,4.00
2019-04-21T12:47:03.616Z,3.72
2019-04-21T12:48:08.357Z,3.08
2019-04-21T12:49:13.788Z,2.85
2019-04-21T12:50:18.324Z,3.20
2019-04-21T12:51:23.834Z,7.33
2019-04-21T12:52:29.402Z,12.35
2019-04-21T12:53:34.088Z,15.35
2019-04-21T12:54:39.648Z,14.05
2019-04-21T12:55:46.024Z,10.95
2019-04-21T12:56:50.053Z,8.88
2019-04-21T12:57:55.232Z,7.95
2019-04-21T12:58:59.665Z,7.80
2019-04-21T13:00:04.835Z,7.10
2019-04-21T13:01:09.438Z,5.28
2019-04-21T13:02:13.897Z,5.50
2019-04-21T13:03:20.521Z,5.95
2019-04-21T13:04:24.109Z,5.05
2019-04-21T13:05:29.622Z,5.15
2019-04-21T13:06:34.106Z,4.67
2019-04-21T13:07:39.463Z,4.30
2019-04-21T13:08:50.963Z,4.05
2019-04-21T13:09:50.450Z,5.08
2019-04-21T13:10:55.998Z,4.80
2019-04-21T13:12:01.441Z,4.97
2019-04-21T13:13:05.953Z,5.00
2019-04-21T13:14:11.484Z,4.65
2019-04-21T13:15:17.838Z,4.17
2019-04-21T13:16:23.368Z,4.97
2019-04-21T13:17:27.824Z,4.62
2019-04-21T13:18:33.235Z,4.00
2019-04-21T13:19:38.955Z,4.08
2019-04-21T13:20:44.338Z,3.52
2019-04-21T13:21:49.865Z,3.87
2019-04-21T13:22:54.386Z,3.12
2019-04-21T13:23:58.905Z,3.40
2019-04-21T13:25:03.314Z,3.87
2019-04-21T13:26:08.286Z,3.80
2019-04-21T13:27:13.589Z,4.10
2019-04-21T13:28:18.745Z,4.90
2019-04-21T13:29:23.942Z,3.80
2019-04-21T13:30:28.512Z,4.75
2019-04-21T13:31:34.115Z,3.75
2019-04-21T13:32:39.164Z,3.50
2019-04-21T13:33:45.833Z,3.25
2019-04-21T13:34:50.971Z,2.58
2019-04-21T13:35:55.403Z,3.52
2019-04-21T13:36:59.670Z,3.60
2019-04-21T13:38:04.637Z,3.40
2019-04-21T13:39:55.615Z,3.25
2019-04-21T13:41:12.246Z,3.83
2019-04-21T13:42:11.895Z,4.33
2019-04-21T13:43:10.274Z,3.35
2019-04-21T13:44:15.885Z,3.22
2019-04-21T13:45:21.926Z,4.60
2019-04-21T13:46:27.195Z,4.42
2019-04-21T13:47:32.530Z,3.90
2019-04-21T13:48:36.989Z,4.53
2019-04-21T13:49:41.582Z,4.28
2019-04-21T13:50:47.040Z,4.30
2019-04-21T13:51:52.039Z,4.55
2019-04-21T13:52:56.621Z,4.00
2019-04-21T13:54:01.942Z,3.20
2019-04-21T13:55:07.738Z,3.62
2019-04-21T13:56:12.102Z,3.45
2019-04-21T13:57:16.666Z,3.22
2019-04-21T13:58:22.099Z,4.40
2019-04-21T13:59:26.551Z,3.33
2019-04-21T14:00:31.759Z,3.85
2019-04-21T14:01:36.211Z,3.85
2019-04-21T14:02:40.862Z,3.50
2019-04-21T14:03:45.115Z,2.33
2019-04-21T14:04:49.693Z,4.15
2019-04-21T14:05:54.174Z,4.62
2019-04-21T14:06:58.564Z,4.00
2019-04-21T14:08:03.172Z,4.62
2019-04-21T14:09:10.583Z,4.10
2019-04-21T14:10:16.101Z,3.72
2019-04-21T14:11:21.196Z,3.50
2019-04-21T14:12:25.532Z,4.33
2019-04-21T14:13:30.322Z,3.70
2019-04-21T14:14:34.621Z,4.95
2019-04-21T14:15:39.976Z,4.40
2019-04-21T14:16:45.690Z,4.35
2019-04-21T14:17:50.893Z,3.77
2019-04-21T14:18:55.386Z,3.62
2019-04-21T14:19:59.561Z,3.37
2019-04-21T14:21:04.973Z,3.90
2019-04-21T14:22:11.673Z,3.47
2019-04-21T14:23:25.543Z,3.50
2019-04-21T14:24:22.588Z,3.58
2019-04-21T14:25:27.943Z,3.15
2019-04-21T14:26:32.254Z,3.40
2019-04-21T14:27:36.511Z,3.30
2019-04-21T14:28:41.078Z,3.33
2019-04-21T14:29:45.940Z,3.72
2019-04-21T14:30:50.579Z,3.72
2019-04-21T14:31:56.027Z,3.40
2019-04-21T14:33:00.461Z,2.92
2019-04-21T14:34:05.878Z,4.00
2019-04-21T14:35:10.943Z,4.40
2019-04-21T14:36:16.780Z,3.87
2019-04-21T14:37:22.486Z,3.80
2019-04-21T14:38:27.030Z,3.50
2019-04-21T14:39:32.470Z,3.02
2019-04-21T14:40:38.486Z,3.75
2019-04-21T14:41:43.960Z,3.25
2019-04-21T14:42:49.680Z,2.75
2019-04-21T14:43:55.128Z,3.05
2019-04-21T14:45:00.841Z,2.72
2019-04-21T14:46:13.268Z,3.42
2019-04-21T14:47:39.937Z,2.67
2019-04-21T14:49:03.417Z,2.98
2019-04-21T14:50:42.463Z,3.15
2019-04-21T14:51:54.672Z,3.02
2019-04-21T14:53:11.922Z,4.20
2019-04-21T14:54:34.044Z,3.40
2019-04-21T14:55:41.558Z,3.10
2019-04-21T14:56:47.209Z,4.00
2019-04-21T14:57:51.668Z,3.67
2019-04-21T14:58:58.712Z,3.70
2019-04-21T15:00:03.018Z,3.98
2019-04-21T15:01:08.324Z,4.45
2019-04-21T15:02:14.066Z,4.25
2019-04-21T15:03:19.496Z,3.98
2019-04-21T15:04:24.124Z,3.75
2019-04-21T15:05:29.384Z,3.15
2019-04-21T15:06:33.746Z,2.80
2019-04-21T15:07:39.214Z,3.10
2019-04-21T15:08:44.839Z,3.50
2019-04-21T15:10:01.149Z,3.52
2019-04-21T15:10:56.792Z,3.42
2019-04-21T15:12:02.395Z,2.80
2019-04-21T15:13:07.730Z,2.50
2019-04-21T15:14:13.711Z,3.12
2019-04-21T15:15:18.257Z,3.05
2019-04-21T15:16:22.831Z,3.12
2019-04-21T15:17:29.134Z,2.62
2019-04-21T15:18:33.083Z,3.17
2019-04-21T15:19:38.351Z,3.65
2019-04-21T15:20:45.309Z,3.92
2019-04-21T15:21:48.655Z,3.42
2019-04-21T15:22:52.926Z,3.60
2019-04-21T15:23:58.196Z,3.40
2019-04-21T15:25:02.908Z,3.25
2019-04-21T15:26:08.317Z,3.47
2019-04-21T15:27:14.690Z,3.83
2019-04-21T15:28:20.105Z,4.00
2019-04-21T15:29:24.735Z,3.33
2019-04-21T15:30:29.047Z,3.12
2019-04-21T15:31:37.717Z,3.15
2019-04-21T15:32:40.225Z,2.90
2019-04-21T15:33:45.259Z,2.87
2019-04-21T15:34:49.953Z,2.60
2019-04-21T15:35:55.386Z,3.47
2019-04-21T15:36:59.923Z,2.87
2019-04-21T15:38:05.555Z,3.12
2019-04-21T15:39:10.122Z,2.60
2019-04-21T15:40:24.110Z,3.05
2019-04-21T15:41:20.698Z,2.65
2019-04-21T15:42:26.228Z,3.27
2019-04-21T15:43:30.781Z,2.95
2019-04-21T15:44:36.704Z,2.60
2019-04-21T15:45:40.945Z,2.20
2019-04-21T15:46:46.120Z,2.85